createdAt,value
2018-03-18T00:01:19.040Z,5.87
2018-03-18T00:03:46.505Z,5.18
2018-03-18T00:06:13.985Z,6.15
2018-03-18T00:08:42.295Z,5.60
2018-03-18T00:11:10.520Z,6.10
2018-03-18T00:13:37.991Z,5.95
2018-03-18T00:16:05.510Z,5.53
2018-03-18T00:18:32.974Z,5.57
2018-03-18T00:21:00.451Z,6.18
2018-03-18T00:23:27.900Z,5.50
2018-03-18T00:25:55.377Z,6.20
2018-03-18T00:28:22.836Z,5.53
2018-03-18T00:30:50.396Z,6.00
2018-03-18T00:33:18.680Z,6.10
2018-03-18T00:35:46.165Z,5.72
2018-03-18T00:38:14.430Z,6.62
2018-03-18T00:40:41.972Z,6.07
2018-03-18T00:43:10.940Z,5.75
2018-03-18T00:45:38.401Z,5.75
2018-03-18T00:48:05.981Z,5.55
2018-03-18T00:50:34.228Z,5.75
2018-03-18T00:53:01.688Z,5.65
2018-03-18T00:55:29.144Z,6.45
2018-03-18T00:57:56.625Z,5.82
2018-03-18T01:00:24.875Z,6.00
2018-03-18T01:02:52.433Z,5.30
2018-03-18T01:05:19.960Z,5.65
2018-03-18T01:07:47.473Z,5.20
2018-03-18T01:10:14.955Z,4.95
2018-03-18T01:12:43.221Z,4.90
2018-03-18T01:15:11.453Z,6.07
2018-03-18T01:17:39.042Z,5.97
2018-03-18T01:20:06.597Z,7.03
2018-03-18T01:22:34.838Z,5.90
2018-03-18T01:25:02.338Z,4.90
2018-03-18T01:27:29.825Z,6.25
2018-03-18T01:29:57.289Z,5.10
2018-03-18T01:32:24.808Z,5.57
2018-03-18T01:34:53.055Z,4.70
2018-03-18T01:37:20.557Z,4.60
2018-03-18T01:39:48.058Z,5.65
2018-03-18T01:42:15.526Z,5.65
2018-03-18T01:44:42.985Z,5.00
2018-03-18T01:47:10.462Z,4.62
2018-03-18T01:49:37.934Z,5.20
2018-03-18T01:52:06.177Z,5.30
2018-03-18T01:54:33.641Z,5.32
2018-03-18T01:57:01.129Z,5.57
2018-03-18T01:59:29.389Z,3.95
2018-03-18T02:01:57.668Z,4.45
2018-03-18T02:04:25.154Z,4.70
2018-03-18T02:06:52.631Z,4.80
2018-03-18T02:09:20.182Z,6.05
2018-03-18T02:11:47.654Z,4.60
2018-03-18T02:14:15.140Z,5.57
2018-03-18T02:16:42.613Z,4.82
2018-03-18T02:19:10.866Z,5.47
2018-03-18T02:21:38.340Z,4.80
2018-03-18T02:24:05.818Z,4.62
2018-03-18T02:26:34.069Z,4.78
2018-03-18T02:29:01.558Z,4.93
2018-03-18T02:31:29.031Z,4.85
2018-03-18T02:33:56.514Z,4.07
2018-03-18T02:36:23.978Z,5.25
2018-03-18T02:38:51.557Z,5.35
2018-03-18T02:41:19.054Z,4.40
2018-03-18T02:43:46.540Z,4.62
2018-03-18T02:46:14.067Z,4.25
2018-03-18T02:48:41.538Z,4.97
2018-03-18T02:51:09.017Z,3.92
2018-03-18T02:53:36.486Z,4.30
2018-03-18T02:56:04.066Z,4.40
2018-03-18T02:58:32.307Z,4.97
2018-03-18T03:00:59.782Z,5.18
2018-03-18T03:03:27.350Z,4.37
2018-03-18T03:05:54.821Z,4.87
2018-03-18T03:08:23.066Z,4.15
2018-03-18T03:10:50.550Z,3.90
2018-03-18T03:13:18.863Z,4.32
2018-03-18T03:15:46.332Z,4.62
2018-03-18T03:18:13.802Z,4.65
2018-03-18T03:20:41.270Z,5.07
2018-03-18T03:23:08.791Z,5.55
2018-03-18T03:25:36.259Z,4.68
2018-03-18T03:28:03.734Z,4.03
2018-03-18T03:30:31.314Z,4.37
2018-03-18T03:32:58.786Z,4.00
2018-03-18T03:35:27.060Z,4.12
2018-03-18T03:37:55.328Z,4.35
2018-03-18T03:40:22.887Z,3.50
2018-03-18T03:42:50.441Z,3.72
2018-03-18T03:45:17.909Z,4.03
2018-03-18T03:47:45.385Z,4.45
2018-03-18T03:50:12.861Z,4.20
2018-03-18T03:52:40.345Z,5.47
2018-03-18T03:55:07.826Z,3.92
2018-03-18T03:57:35.309Z,3.92
2018-03-18T04:00:03.562Z,4.07
2018-03-18T04:02:31.793Z,4.05
2018-03-18T04:04:59.275Z,4.62
2018-03-18T04:07:26.750Z,4.40
2018-03-18T04:09:54.213Z,3.40
2018-03-18T04:12:22.456Z,4.65
2018-03-18T04:14:49.930Z,4.40
2018-03-18T04:17:17.564Z,4.53
2018-03-18T04:19:45.035Z,3.95
2018-03-18T04:22:12.508Z,4.20
2018-03-18T04:24:39.969Z,4.75
2018-03-18T04:27:07.452Z,3.53
2018-03-18T04:29:35.711Z,4.22
2018-03-18T04:32:03.948Z,3.80
2018-03-18T04:34:31.448Z,3.90
2018-03-18T04:36:59.697Z,4.57
2018-03-18T04:39:27.219Z,3.70
2018-03-18T04:41:54.737Z,4.05
2018-03-18T04:44:22.999Z,4.47
2018-03-18T04:46:50.573Z,3.90
2018-03-18T04:49:18.885Z,4.18
2018-03-18T04:51:46.360Z,4.00
2018-03-18T04:54:13.896Z,4.60
2018-03-18T04:59:15.494Z,3.80
2018-03-18T05:01:42.921Z,3.70
2018-03-18T05:04:10.438Z,4.20
2018-03-18T05:06:37.907Z,4.12
2018-03-18T05:09:06.149Z,3.90
2018-03-18T05:11:33.726Z,4.05
2018-03-18T05:14:01.198Z,3.70
2018-03-18T05:16:29.436Z,3.75
2018-03-18T05:18:56.903Z,3.40
2018-03-18T05:21:24.444Z,3.50
2018-03-18T05:23:51.923Z,3.70
2018-03-18T05:26:19.634Z,2.97
2018-03-18T05:28:47.041Z,3.20
2018-03-18T05:31:14.509Z,4.55
2018-03-18T05:33:42.747Z,3.87
2018-03-18T05:36:10.217Z,3.62
2018-03-18T05:38:37.682Z,3.80
2018-03-18T05:41:05.169Z,4.00
2018-03-18T05:43:33.408Z,3.92
2018-03-18T05:46:00.881Z,4.22
2018-03-18T05:48:28.472Z,3.92
2018-03-18T05:50:55.930Z,3.92
2018-03-18T05:53:23.453Z,4.03
2018-03-18T05:55:51.005Z,3.30
2018-03-18T05:58:18.530Z,3.65
2018-03-18T06:00:46.024Z,3.65
2018-03-18T06:03:13.502Z,3.47
2018-03-18T06:05:41.752Z,3.53
2018-03-18T06:08:09.264Z,3.67
2018-03-18T06:10:36.780Z,6.22
2018-03-18T06:13:04.254Z,3.95
2018-03-18T06:15:31.729Z,3.92
2018-03-18T06:17:59.265Z,4.37
2018-03-18T06:20:27.521Z,3.87
2018-03-18T06:22:54.989Z,3.62
2018-03-18T06:25:23.252Z,3.83
2018-03-18T06:27:50.811Z,3.75
2018-03-18T06:30:18.279Z,4.00
2018-03-18T06:32:46.546Z,3.65
2018-03-18T06:35:14.107Z,4.03
2018-03-18T06:37:42.380Z,3.87
2018-03-18T06:40:09.881Z,3.95
2018-03-18T06:42:37.363Z,4.40
2018-03-18T06:45:04.838Z,3.45
2018-03-18T06:47:32.309Z,4.25
2018-03-18T06:50:00.564Z,3.70
2018-03-18T06:52:28.037Z,5.10
2018-03-18T06:54:56.285Z,3.65
2018-03-18T06:57:23.816Z,3.30
2018-03-18T06:59:51.317Z,3.37
2018-03-18T07:02:18.795Z,4.43
2018-03-18T07:04:47.061Z,4.28
2018-03-18T07:07:14.693Z,4.57
2018-03-18T07:09:42.176Z,3.80
2018-03-18T07:12:09.654Z,3.37
2018-03-18T07:14:37.897Z,3.78
2018-03-18T07:17:05.358Z,4.37
2018-03-18T07:19:32.943Z,3.72
2018-03-18T07:22:01.186Z,4.00
2018-03-18T07:24:28.796Z,4.30
2018-03-18T07:26:56.370Z,3.87
2018-03-18T07:29:23.884Z,4.05
2018-03-18T07:31:51.341Z,3.33
2018-03-18T07:34:19.583Z,5.37
2018-03-18T07:36:47.065Z,4.95
2018-03-18T07:39:16.082Z,3.85
2018-03-18T07:41:43.567Z,3.60
2018-03-18T07:44:11.039Z,3.92
2018-03-18T07:46:38.519Z,3.90
2018-03-18T07:49:05.988Z,3.20
2018-03-18T07:51:33.457Z,7.15
2018-03-18T07:54:01.694Z,3.22
2018-03-18T07:56:29.186Z,3.90
2018-03-18T07:58:56.737Z,4.10
2018-03-18T08:01:24.227Z,3.60
2018-03-18T08:03:51.686Z,3.72
2018-03-18T08:06:19.158Z,3.03
2018-03-18T08:08:46.654Z,3.25
2018-03-18T08:11:14.120Z,4.22
2018-03-18T08:13:42.375Z,3.28
2018-03-18T08:16:09.853Z,3.62
2018-03-18T08:18:37.336Z,3.35
2018-03-18T08:21:05.589Z,4.05
2018-03-18T08:23:33.270Z,3.90
2018-03-18T08:26:01.530Z,3.53
2018-03-18T08:28:29.808Z,3.72
2018-03-18T08:30:58.047Z,3.00
2018-03-18T08:33:25.548Z,3.53
2018-03-18T08:35:53.868Z,4.50
2018-03-18T08:38:22.080Z,3.95
2018-03-18T08:40:49.574Z,3.10
2018-03-18T08:43:17.035Z,3.80
2018-03-18T08:45:44.502Z,3.45
2018-03-18T08:48:11.966Z,4.28
2018-03-18T08:50:39.440Z,3.55
2018-03-18T08:53:06.920Z,3.12
2018-03-18T08:55:35.313Z,4.22
2018-03-18T08:58:02.874Z,3.35
2018-03-18T09:00:31.117Z,3.90
2018-03-18T09:02:58.609Z,3.00
2018-03-18T09:05:26.835Z,4.00
2018-03-18T09:07:54.306Z,2.90
2018-03-18T09:10:21.778Z,3.25
2018-03-18T09:12:49.248Z,3.35
2018-03-18T09:15:16.710Z,3.60
2018-03-18T09:17:45.106Z,3.45
2018-03-18T09:20:12.502Z,3.28
2018-03-18T09:22:39.966Z,3.58
2018-03-18T09:25:07.455Z,3.47
2018-03-18T09:27:34.937Z,2.95
2018-03-18T09:30:02.453Z,3.40
2018-03-18T09:32:29.922Z,3.30
2018-03-18T09:34:57.428Z,2.53
2018-03-18T09:37:24.892Z,2.92
2018-03-18T09:39:52.414Z,3.37
2018-03-18T09:42:19.887Z,3.67
2018-03-18T09:44:47.349Z,3.05
2018-03-18T09:47:14.811Z,3.60
2018-03-18T09:49:42.291Z,3.70
2018-03-18T09:52:09.750Z,3.20
2018-03-18T09:54:37.217Z,3.25
2018-03-18T09:57:04.696Z,3.05
2018-03-18T09:59:32.934Z,3.40
2018-03-18T10:02:00.412Z,2.87
2018-03-18T10:04:27.885Z,3.33
2018-03-18T10:06:56.114Z,3.65
2018-03-18T10:09:23.602Z,2.85
2018-03-18T10:11:51.081Z,3.50
2018-03-18T10:14:19.317Z,3.40
2018-03-18T10:16:46.786Z,3.40
2018-03-18T10:19:14.261Z,3.37
2018-03-18T10:21:41.759Z,2.62
2018-03-18T10:24:09.959Z,2.55
2018-03-18T10:26:37.426Z,2.97
2018-03-18T10:29:04.962Z,2.85
2018-03-18T10:31:32.504Z,2.97
2018-03-18T10:33:59.991Z,3.30
2018-03-18T10:36:27.561Z,3.33
2018-03-18T10:38:55.032Z,3.00
2018-03-18T10:41:22.493Z,2.60
2018-03-18T10:43:50.044Z,3.10
2018-03-18T10:46:17.519Z,3.15
2018-03-18T10:48:45.804Z,3.45
2018-03-18T10:51:13.274Z,3.67
2018-03-18T10:53:40.730Z,2.95
2018-03-18T10:56:08.211Z,3.20
2018-03-18T10:58:35.686Z,2.97
2018-03-18T11:01:09.730Z,3.20
2018-03-18T11:03:40.349Z,3.40
2018-03-18T11:06:07.827Z,3.15
2018-03-18T11:08:36.053Z,3.58
2018-03-18T11:11:03.533Z,3.00
2018-03-18T11:13:31.091Z,3.20
2018-03-18T11:15:58.583Z,3.20
2018-03-18T11:18:26.048Z,2.70
2018-03-18T11:20:53.529Z,3.30
2018-03-18T11:23:21.001Z,3.72
2018-03-18T11:25:48.573Z,3.12
2018-03-18T11:28:16.241Z,3.17
2018-03-18T11:30:43.822Z,3.58
2018-03-18T11:33:12.076Z,2.92
2018-03-18T11:35:39.559Z,3.33
2018-03-18T11:38:07.818Z,3.30
2018-03-18T11:40:36.061Z,2.50
2018-03-18T11:43:03.523Z,2.95
2018-03-18T11:45:31.015Z,5.30
2018-03-18T11:47:59.268Z,3.22
2018-03-18T11:50:26.762Z,3.33
2018-03-18T11:52:54.227Z,2.92
2018-03-18T11:55:21.751Z,2.90
2018-03-18T11:57:49.249Z,2.83
2018-03-18T12:00:16.762Z,3.12
2018-03-18T12:02:44.281Z,2.72
2018-03-18T12:05:11.750Z,2.55
2018-03-18T12:07:39.217Z,3.05
2018-03-18T12:10:06.672Z,3.28
2018-03-18T12:12:34.170Z,4.07
2018-03-18T12:15:02.423Z,3.62
2018-03-18T12:17:31.442Z,2.97
2018-03-18T12:19:58.905Z,3.05
2018-03-18T12:22:26.432Z,2.40
2018-03-18T12:24:53.891Z,3.28
2018-03-18T12:27:21.349Z,3.40
2018-03-18T12:29:48.806Z,3.00
2018-03-18T12:32:16.434Z,3.03
2018-03-18T12:34:43.906Z,3.05
2018-03-18T12:37:11.377Z,3.08
2018-03-18T12:39:50.833Z,3.40
2018-03-18T12:42:31.016Z,3.40
2018-03-18T12:44:58.532Z,2.42
2018-03-18T12:47:25.995Z,3.65
2018-03-18T12:49:54.217Z,2.35
2018-03-18T12:52:21.695Z,3.37
2018-03-18T12:54:49.159Z,2.87
2018-03-18T12:57:16.638Z,2.70
2018-03-18T12:59:44.898Z,2.70
2018-03-18T13:02:12.457Z,3.25
2018-03-18T13:04:40.031Z,3.42
2018-03-18T13:07:07.410Z,2.85
2018-03-18T13:09:34.929Z,2.90
2018-03-18T13:12:02.605Z,3.20
2018-03-18T13:14:30.867Z,3.00
2018-03-18T13:16:58.333Z,3.50
2018-03-18T13:19:26.610Z,2.95
2018-03-18T13:21:54.852Z,3.70
2018-03-18T13:24:22.491Z,3.70
2018-03-18T13:26:49.981Z,3.62
2018-03-18T13:29:17.459Z,2.78
2018-03-18T13:31:45.690Z,2.28
2018-03-18T13:34:13.181Z,2.87
2018-03-18T13:36:40.650Z,3.42
2018-03-18T13:39:08.927Z,2.95
2018-03-18T13:41:37.197Z,2.85
2018-03-18T13:44:05.479Z,3.35
2018-03-18T13:46:33.705Z,2.95
2018-03-18T13:49:01.174Z,3.05
2018-03-18T13:51:28.638Z,3.25
2018-03-18T13:53:56.137Z,3.25
2018-03-18T13:56:24.374Z,2.75
2018-03-18T13:58:51.877Z,2.60
2018-03-18T14:01:19.350Z,2.85
2018-03-18T14:03:46.798Z,3.00
2018-03-18T14:06:14.277Z,3.25
2018-03-18T14:08:41.733Z,3.22
2018-03-18T14:11:09.198Z,2.72
2018-03-18T14:13:36.667Z,3.17
2018-03-18T14:16:04.154Z,2.62
2018-03-18T14:18:32.382Z,2.60
2018-03-18T14:20:59.862Z,2.35
2018-03-18T14:23:27.437Z,2.92
2018-03-18T14:25:55.003Z,2.95
2018-03-18T14:28:23.226Z,2.67
2018-03-18T14:30:50.718Z,3.55
2018-03-18T14:33:18.186Z,2.62
2018-03-18T14:35:46.455Z,3.12
2018-03-18T14:38:13.910Z,2.85
2018-03-18T14:40:41.394Z,2.45
2018-03-18T14:43:09.633Z,2.70
2018-03-18T14:45:37.109Z,3.12
2018-03-18T14:48:05.333Z,3.05
2018-03-18T14:50:32.814Z,2.47
2018-03-18T14:53:00.279Z,3.90
2018-03-18T14:55:27.754Z,3.12
2018-03-18T14:57:56.022Z,3.37
2018-03-18T15:00:23.481Z,3.47
2018-03-18T15:02:50.949Z,2.40
2018-03-18T15:05:19.218Z,3.00
2018-03-18T15:07:47.489Z,2.92
2018-03-18T15:10:15.768Z,3.15
2018-03-18T15:12:43.330Z,2.92
2018-03-18T15:15:11.645Z,2.80
2018-03-18T15:17:39.148Z,2.70
2018-03-18T15:20:06.634Z,2.53
2018-03-18T15:22:34.868Z,3.10
2018-03-18T15:25:02.348Z,2.55
2018-03-18T15:27:29.849Z,3.53
2018-03-18T15:29:57.321Z,3.20
2018-03-18T15:32:24.801Z,3.00
2018-03-18T15:34:52.274Z,5.28
2018-03-18T15:37:19.766Z,3.53
2018-03-18T15:39:47.285Z,3.30
2018-03-18T15:42:14.754Z,3.10
2018-03-18T15:44:42.993Z,3.45
2018-03-18T15:47:10.481Z,4.03
2018-03-18T15:49:38.755Z,3.28
2018-03-18T15:52:07.025Z,3.42
2018-03-18T15:54:34.500Z,3.90
2018-03-18T15:57:01.981Z,3.33
2018-03-18T15:59:29.590Z,3.65
2018-03-18T16:01:57.088Z,3.83
2018-03-18T16:04:24.621Z,3.80
2018-03-18T16:06:52.889Z,3.83
2018-03-18T16:09:21.150Z,4.17
2018-03-18T16:11:48.626Z,4.00
2018-03-18T16:14:16.095Z,3.40
2018-03-18T16:16:43.576Z,3.60
2018-03-18T16:19:11.058Z,3.20
2018-03-18T16:21:38.533Z,4.20
2018-03-18T16:24:06.106Z,3.53
2018-03-18T16:26:34.379Z,3.90
2018-03-18T16:32:07.277Z,3.50
2018-03-18T16:34:34.754Z,3.40
2018-03-18T16:37:02.987Z,3.70
2018-03-18T16:39:30.458Z,3.83
2018-03-18T16:41:57.926Z,3.15
2018-03-18T16:44:25.411Z,4.35
2018-03-18T16:46:53.664Z,3.90
2018-03-18T16:49:21.214Z,3.47
2018-03-18T16:51:48.712Z,3.72
2018-03-18T16:54:16.954Z,2.75
2018-03-18T16:56:44.421Z,3.20
2018-03-18T16:59:12.649Z,3.17
2018-03-18T17:01:40.121Z,3.55
2018-03-18T17:04:07.617Z,3.50
2018-03-18T17:06:35.871Z,3.58
2018-03-18T17:09:03.330Z,3.10
2018-03-18T17:11:30.831Z,3.45
2018-03-18T17:13:59.074Z,3.15
2018-03-18T17:16:26.630Z,3.85
2018-03-18T17:18:54.858Z,2.80
2018-03-18T17:21:22.341Z,3.05
2018-03-18T17:23:49.798Z,3.10
2018-03-18T17:26:17.382Z,3.40
2018-03-18T17:28:45.647Z,3.05
2018-03-18T17:31:13.118Z,3.25
2018-03-18T17:33:41.355Z,4.22
2018-03-18T17:36:08.834Z,3.37
2018-03-18T17:38:36.343Z,3.40
2018-03-18T17:41:04.554Z,3.65
2018-03-18T17:43:32.015Z,3.62
2018-03-18T17:46:11.482Z,3.33
2018-03-18T17:48:51.642Z,3.62
2018-03-18T17:51:31.884Z,3.50
2018-03-18T17:54:12.078Z,3.83
2018-03-18T17:56:39.592Z,3.15
2018-03-18T17:59:07.044Z,3.47
2018-03-18T18:01:34.598Z,3.55
2018-03-18T18:04:02.169Z,3.47
2018-03-18T18:06:30.442Z,3.10
2018-03-18T18:08:57.926Z,3.55
2018-03-18T18:11:25.460Z,3.60
2018-03-18T18:13:52.922Z,4.65
2018-03-18T18:16:21.176Z,4.25
2018-03-18T18:18:48.643Z,3.33
2018-03-18T18:21:16.110Z,4.30
2018-03-18T18:23:44.347Z,4.05
2018-03-18T18:26:11.825Z,3.58
2018-03-18T18:28:39.288Z,4.40
2018-03-18T18:31:06.783Z,4.70
2018-03-18T18:33:34.248Z,4.40
2018-03-18T18:36:01.767Z,3.87
2018-03-18T18:38:30.004Z,3.40
2018-03-18T18:40:57.485Z,3.83
2018-03-18T18:43:24.959Z,4.35
2018-03-18T18:45:53.231Z,3.60
2018-03-18T18:48:20.698Z,4.68
2018-03-18T18:50:48.937Z,3.75
2018-03-18T18:53:16.409Z,3.70
2018-03-18T18:55:43.893Z,4.65
2018-03-18T18:58:11.366Z,4.03
2018-03-18T19:00:38.822Z,3.87
2018-03-18T19:03:06.387Z,4.22
2018-03-18T19:05:34.593Z,3.75
2018-03-18T19:08:02.074Z,3.40
2018-03-18T19:10:30.335Z,3.78
2018-03-18T19:12:58.649Z,3.05
2018-03-18T19:15:26.905Z,4.22
2018-03-18T19:17:54.365Z,4.03
2018-03-18T19:20:22.589Z,4.15
2018-03-18T19:22:50.138Z,5.18
2018-03-18T19:25:17.645Z,4.20
2018-03-18T19:27:45.200Z,4.53
2018-03-18T19:30:12.664Z,4.60
2018-03-18T19:32:40.210Z,3.75
2018-03-18T19:35:07.682Z,4.15
2018-03-18T19:37:35.190Z,5.70
2018-03-18T19:40:02.671Z,4.85
2018-03-18T19:42:30.156Z,4.00
2018-03-18T19:44:58.415Z,4.62
2018-03-18T19:47:26.678Z,3.50
2018-03-18T19:49:54.162Z,3.47
2018-03-18T19:52:22.391Z,4.30
2018-03-18T19:54:49.881Z,4.32
2018-03-18T19:57:17.341Z,5.22
2018-03-18T19:59:44.812Z,3.60
2018-03-18T20:02:13.038Z,3.35
2018-03-18T20:04:40.509Z,3.92
2018-03-18T20:07:07.977Z,5.03
2018-03-18T20:09:35.495Z,3.80
2018-03-18T20:12:02.987Z,4.45
2018-03-18T20:14:30.601Z,4.22
2018-03-18T20:16:58.067Z,4.37
2018-03-18T20:19:25.552Z,4.62
2018-03-18T20:21:53.023Z,3.95
2018-03-18T20:24:20.634Z,3.10
2018-03-18T20:26:48.849Z,4.10
2018-03-18T20:29:16.314Z,3.80
2018-03-18T20:31:43.789Z,3.87
2018-03-18T20:34:11.288Z,4.47
2018-03-18T20:36:38.753Z,4.32
2018-03-18T20:39:06.222Z,4.07
2018-03-18T20:41:33.691Z,4.43
2018-03-18T20:44:01.161Z,3.85
2018-03-18T20:46:28.651Z,4.57
2018-03-18T20:48:56.897Z,4.93
2018-03-18T20:51:24.373Z,4.87
2018-03-18T20:53:52.630Z,4.60
2018-03-18T20:56:20.097Z,4.93
2018-03-18T20:58:48.317Z,4.45
2018-03-18T21:01:15.822Z,4.75
2018-03-18T21:03:43.279Z,4.40
2018-03-18T21:06:10.755Z,5.10
2018-03-18T21:08:39.075Z,3.87
2018-03-18T21:11:06.550Z,4.55
2018-03-18T21:13:34.130Z,5.47
2018-03-18T21:16:01.590Z,4.55
2018-03-18T21:18:29.129Z,4.60
2018-03-18T21:20:56.614Z,5.50
2018-03-18T21:23:24.849Z,4.20
2018-03-18T21:25:52.325Z,3.97
2018-03-18T21:28:19.811Z,4.25
2018-03-18T21:30:48.059Z,4.12
2018-03-18T21:33:15.533Z,4.32
2018-03-18T21:35:43.782Z,4.90
2018-03-18T21:38:11.262Z,5.05
2018-03-18T21:40:39.488Z,4.47
2018-03-18T21:43:07.001Z,5.60
2018-03-18T21:45:35.261Z,5.20
2018-03-18T21:48:02.733Z,4.90
2018-03-18T21:50:30.977Z,4.70
2018-03-18T21:52:58.452Z,4.60
2018-03-18T21:55:25.921Z,4.55
2018-03-18T21:57:54.163Z,6.30
2018-03-18T22:00:21.643Z,5.85
2018-03-18T22:02:49.194Z,4.85
2018-03-18T22:05:16.758Z,5.95
2018-03-18T22:07:44.233Z,4.90
2018-03-18T22:10:12.487Z,5.53
2018-03-18T22:12:39.967Z,6.20
2018-03-18T22:15:08.227Z,5.32
2018-03-18T22:17:36.459Z,4.55
2018-03-18T22:20:03.936Z,5.20
2018-03-18T22:22:31.535Z,5.95
2018-03-18T22:25:00.587Z,5.87
2018-03-18T22:27:29.057Z,5.50
2018-03-18T22:29:56.522Z,4.60
2018-03-18T22:32:23.994Z,4.62
2018-03-18T22:34:52.324Z,4.93
2018-03-18T22:37:19.814Z,5.15
2018-03-18T22:39:47.286Z,5.47
2018-03-18T22:42:14.860Z,5.15
2018-03-18T22:44:43.098Z,5.37
2018-03-18T22:47:10.566Z,4.90
2018-03-18T22:49:38.037Z,5.37
2018-03-18T22:52:07.018Z,4.62
2018-03-18T22:54:34.477Z,5.35
2018-03-18T22:57:02.720Z,5.40
2018-03-18T22:59:30.190Z,5.75
2018-03-18T23:01:57.680Z,4.62
2018-03-18T23:04:25.942Z,4.65
2018-03-18T23:06:53.406Z,6.20
2018-03-18T23:09:20.873Z,5.57
2018-03-18T23:11:49.106Z,6.25
2018-03-18T23:14:16.618Z,4.60
2018-03-18T23:16:44.853Z,4.90
2018-03-18T23:19:12.437Z,4.85
2018-03-18T23:21:40.678Z,6.25
2018-03-18T23:24:08.155Z,6.30
2018-03-18T23:26:37.140Z,5.65
2018-03-18T23:29:04.608Z,6.20
2018-03-18T23:31:33.638Z,5.25
2018-03-18T23:34:01.107Z,5.32
2018-03-18T23:36:28.612Z,5.22
2018-03-18T23:38:56.905Z,4.65
2018-03-18T23:41:25.169Z,5.07
2018-03-18T23:43:52.643Z,5.45
2018-03-18T23:46:20.915Z,6.00
2018-03-18T23:48:49.165Z,6.10
2018-03-18T23:51:16.642Z,5.60
2018-03-18T23:53:44.110Z,4.93
2018-03-18T23:56:12.337Z,5.87
2018-03-18T23:58:39.806Z,6.35
